sensor_id;sensor_type;location;lat;lon;timestamp;P1;durP1;ratioP1;P2;durP2;ratioP2
23117;SDS011;11728;50.624;6.014;2023-01-01T00:00:23;7.60;;;1.65;;
23117;SDS011;11728;50.624;6.014;2023-01-01T00:05:43;3.33;;;1.15;;
23117;SDS011;11728;50.624;6.014;2023-01-01T00:11:05;3.20;;;1.33;;
23117;SDS011;11728;50.624;6.014;2023-01-01T00:16:27;5.32;;;1.20;;
23117;SDS011;11728;50.624;6.014;2023-01-01T00:21:48;4.80;;;1.58;;
23117;SDS011;11728;50.624;6.014;2023-01-01T00:27:09;5.07;;;1.27;;
23117;SDS011;11728;50.624;6.014;2023-01-01T00:32:29;4.15;;;1.45;;
23117;SDS011;11728;50.624;6.014;2023-01-01T00:37:50;6.72;;;1.30;;
23117;SDS011;11728;50.624;6.014;2023-01-01T00:43:12;3.67;;;1.45;;
23117;SDS011;11728;50.624;6.014;2023-01-01T00:48:32;6.25;;;1.27;;
23117;SDS011;11728;50.624;6.014;2023-01-01T00:53:53;6.47;;;1.20;;
23117;SDS011;11728;50.624;6.014;2023-01-01T00:59:14;9.25;;;1.40;;
23117;SDS011;11728;50.624;6.014;2023-01-01T01:04:35;2.78;;;1.10;;
23117;SDS011;11728;50.624;6.014;2023-01-01T01:09:56;3.08;;;1.20;;
23117;SDS011;11728;50.624;6.014;2023-01-01T01:15:16;4.35;;;1.30;;
23117;SDS011;11728;50.624;6.014;2023-01-01T01:20:38;2.70;;;1.17;;
23117;SDS011;11728;50.624;6.014;2023-01-01T01:26:09;8.55;;;1.63;;
23117;SDS011;11728;50.624;6.014;2023-01-01T01:31:36;3.97;;;1.30;;
23117;SDS011;11728;50.624;6.014;2023-01-01T01:36:56;3.45;;;1.20;;
23117;SDS011;11728;50.624;6.014;2023-01-01T01:42:17;4.47;;;1.35;;
23117;SDS011;11728;50.624;6.014;2023-01-01T01:47:41;5.68;;;1.40;;
23117;SDS011;11728;50.624;6.014;2023-01-01T01:53:13;4.82;;;1.20;;
23117;SDS011;11728;50.624;6.014;2023-01-01T01:58:39;6.55;;;1.25;;
23117;SDS011;11728;50.624;6.014;2023-01-01T02:04:00;4.63;;;1.65;;
23117;SDS011;11728;50.624;6.014;2023-01-01T02:09:23;8.10;;;1.55;;
23117;SDS011;11728;50.624;6.014;2023-01-01T02:14:44;4.28;;;1.20;;
23117;SDS011;11728;50.624;6.014;2023-01-01T02:20:27;6.40;;;1.52;;
23117;SDS011;11728;50.624;6.014;2023-01-01T02:31:42;6.20;;;1.50;;
23117;SDS011;11728;50.624;6.014;2023-01-01T02:37:28;7.53;;;1.33;;
23117;SDS011;11728;50.624;6.014;2023-01-01T02:42:49;8.85;;;1.75;;
23117;SDS011;11728;50.624;6.014;2023-01-01T02:54:16;4.60;;;1.20;;
23117;SDS011;11728;50.624;6.014;2023-01-01T03:11:22;5.43;;;1.60;;
23117;SDS011;11728;50.624;6.014;2023-01-01T03:22:11;8.52;;;1.60;;
23117;SDS011;11728;50.624;6.014;2023-01-01T03:27:39;7.60;;;1.60;;
23117;SDS011;11728;50.624;6.014;2023-01-01T03:33:25;9.32;;;1.70;;
23117;SDS011;11728;50.624;6.014;2023-01-01T03:49:46;9.15;;;1.77;;
23117;SDS011;11728;50.624;6.014;2023-01-01T03:55:25;6.10;;;1.70;;
23117;SDS011;11728;50.624;6.014;2023-01-01T04:01:10;6.80;;;1.70;;
23117;SDS011;11728;50.624;6.014;2023-01-01T04:06:35;6.20;;;1.40;;
23117;SDS011;11728;50.624;6.014;2023-01-01T04:11:56;7.88;;;2.00;;
23117;SDS011;11728;50.624;6.014;2023-01-01T04:17:21;6.38;;;1.52;;
23117;SDS011;11728;50.624;6.014;2023-01-01T04:22:42;8.60;;;1.55;;
23117;SDS011;11728;50.624;6.014;2023-01-01T04:28:03;7.30;;;1.90;;
23117;SDS011;11728;50.624;6.014;2023-01-01T04:33:24;5.78;;;1.80;;
23117;SDS011;11728;50.624;6.014;2023-01-01T04:38:45;6.10;;;1.63;;
23117;SDS011;11728;50.624;6.014;2023-01-01T04:44:06;5.35;;;1.40;;
23117;SDS011;11728;50.624;6.014;2023-01-01T04:49:26;6.53;;;1.17;;
23117;SDS011;11728;50.624;6.014;2023-01-01T04:54:47;6.57;;;1.80;;
23117;SDS011;11728;50.624;6.014;2023-01-01T05:00:08;4.93;;;1.70;;
23117;SDS011;11728;50.624;6.014;2023-01-01T05:05:29;9.23;;;1.63;;
23117;SDS011;11728;50.624;6.014;2023-01-01T05:10:50;4.47;;;1.70;;
23117;SDS011;11728;50.624;6.014;2023-01-01T05:16:12;4.78;;;1.48;;
23117;SDS011;11728;50.624;6.014;2023-01-01T05:21:36;13.90;;;2.00;;
23117;SDS011;11728;50.624;6.014;2023-01-01T05:26:58;6.90;;;1.60;;
23117;SDS011;11728;50.624;6.014;2023-01-01T05:32:19;11.63;;;2.17;;
23117;SDS011;11728;50.624;6.014;2023-01-01T05:37:40;6.30;;;1.73;;
23117;SDS011;11728;50.624;6.014;2023-01-01T05:43:01;5.45;;;2.30;;
23117;SDS011;11728;50.624;6.014;2023-01-01T05:48:22;6.43;;;1.70;;
23117;SDS011;11728;50.624;6.014;2023-01-01T05:53:42;6.28;;;1.73;;
23117;SDS011;11728;50.624;6.014;2023-01-01T05:59:04;7.15;;;1.52;;
23117;SDS011;11728;50.624;6.014;2023-01-01T06:04:24;11.25;;;2.20;;
23117;SDS011;11728;50.624;6.014;2023-01-01T06:09:45;7.20;;;1.63;;
23117;SDS011;11728;50.624;6.014;2023-01-01T06:15:06;6.88;;;1.50;;
23117;SDS011;11728;50.624;6.014;2023-01-01T06:20:28;6.20;;;1.75;;
23117;SDS011;11728;50.624;6.014;2023-01-01T06:25:49;6.35;;;1.85;;
23117;SDS011;11728;50.624;6.014;2023-01-01T06:31:10;8.57;;;1.83;;
23117;SDS011;11728;50.624;6.014;2023-01-01T06:36:32;9.30;;;2.10;;
23117;SDS011;11728;50.624;6.014;2023-01-01T06:41:53;11.35;;;1.90;;
23117;SDS011;11728;50.624;6.014;2023-01-01T06:47:14;6.68;;;1.92;;
23117;SDS011;11728;50.624;6.014;2023-01-01T06:52:35;5.85;;;1.90;;
23117;SDS011;11728;50.624;6.014;2023-01-01T06:57:55;7.53;;;1.60;;
23117;SDS011;11728;50.624;6.014;2023-01-01T07:03:16;6.88;;;1.95;;
23117;SDS011;11728;50.624;6.014;2023-01-01T07:08:37;7.18;;;1.90;;
23117;SDS011;11728;50.624;6.014;2023-01-01T07:13:59;6.93;;;1.92;;
23117;SDS011;11728;50.624;6.014;2023-01-01T07:19:20;8.50;;;2.13;;
23117;SDS011;11728;50.624;6.014;2023-01-01T07:24:41;11.73;;;2.00;;
23117;SDS011;11728;50.624;6.014;2023-01-01T07:30:02;8.38;;;1.88;;
23117;SDS011;11728;50.624;6.014;2023-01-01T07:35:23;7.45;;;1.80;;
23117;SDS011;11728;50.624;6.014;2023-01-01T07:40:44;10.85;;;2.40;;
23117;SDS011;11728;50.624;6.014;2023-01-01T07:46:05;8.55;;;2.20;;
23117;SDS011;11728;50.624;6.014;2023-01-01T07:51:25;8.68;;;1.85;;
23117;SDS011;11728;50.624;6.014;2023-01-01T07:56:47;7.82;;;1.70;;
23117;SDS011;11728;50.624;6.014;2023-01-01T08:02:09;8.75;;;2.10;;
23117;SDS011;11728;50.624;6.014;2023-01-01T08:07:33;4.45;;;1.58;;
23117;SDS011;11728;50.624;6.014;2023-01-01T08:12:59;7.85;;;2.30;;
23117;SDS011;11728;50.624;6.014;2023-01-01T08:18:20;6.93;;;1.92;;
23117;SDS011;11728;50.624;6.014;2023-01-01T08:23:41;8.20;;;2.05;;
23117;SDS011;11728;50.624;6.014;2023-01-01T08:29:03;9.68;;;1.85;;
23117;SDS011;11728;50.624;6.014;2023-01-01T08:34:25;6.05;;;1.67;;
23117;SDS011;11728;50.624;6.014;2023-01-01T08:39:48;5.78;;;1.77;;
23117;SDS011;11728;50.624;6.014;2023-01-01T08:45:10;6.82;;;1.92;;
23117;SDS011;11728;50.624;6.014;2023-01-01T08:50:32;10.57;;;2.53;;
23117;SDS011;11728;50.624;6.014;2023-01-01T09:01:17;7.68;;;2.15;;
23117;SDS011;11728;50.624;6.014;2023-01-01T09:06:41;7.55;;;1.60;;
23117;SDS011;11728;50.624;6.014;2023-01-01T09:12:03;8.77;;;2.10;;
23117;SDS011;11728;50.624;6.014;2023-01-01T09:17:26;8.48;;;2.03;;
23117;SDS011;11728;50.624;6.014;2023-01-01T09:22:47;8.98;;;1.85;;
23117;SDS011;11728;50.624;6.014;2023-01-01T09:28:10;4.80;;;1.73;;
23117;SDS011;11728;50.624;6.014;2023-01-01T09:33:33;7.10;;;1.63;;
23117;SDS011;11728;50.624;6.014;2023-01-01T09:38:54;8.00;;;1.98;;
23117;SDS011;11728;50.624;6.014;2023-01-01T09:50:19;9.32;;;1.70;;
23117;SDS011;11728;50.624;6.014;2023-01-01T10:01:11;9.60;;;1.90;;
23117;SDS011;11728;50.624;6.014;2023-01-01T10:06:43;7.65;;;1.80;;
23117;SDS011;11728;50.624;6.014;2023-01-01T10:17:43;12.52;;;1.88;;
23117;SDS011;11728;50.624;6.014;2023-01-01T10:23:25;5.88;;;1.70;;
23117;SDS011;11728;50.624;6.014;2023-01-01T10:28:59;6.50;;;1.90;;
23117;SDS011;11728;50.624;6.014;2023-01-01T10:34:24;6.72;;;1.50;;
23117;SDS011;11728;50.624;6.014;2023-01-01T10:39:47;5.70;;;1.55;;
23117;SDS011;11728;50.624;6.014;2023-01-01T10:45:13;9.20;;;1.80;;
23117;SDS011;11728;50.624;6.014;2023-01-01T10:56:13;5.93;;;1.67;;
23117;SDS011;11728;50.624;6.014;2023-01-01T11:01:36;6.72;;;1.80;;
23117;SDS011;11728;50.624;6.014;2023-01-01T11:06:57;5.10;;;1.50;;
23117;SDS011;11728;50.624;6.014;2023-01-01T11:12:19;5.40;;;1.65;;
23117;SDS011;11728;50.624;6.014;2023-01-01T11:17:44;7.78;;;1.80;;
23117;SDS011;11728;50.624;6.014;2023-01-01T11:23:19;4.57;;;1.17;;
23117;SDS011;11728;50.624;6.014;2023-01-01T11:28:40;8.50;;;2.05;;
23117;SDS011;11728;50.624;6.014;2023-01-01T11:34:03;10.00;;;1.90;;
23117;SDS011;11728;50.624;6.014;2023-01-01T11:39:36;4.55;;;1.55;;
23117;SDS011;11728;50.624;6.014;2023-01-01T11:44:58;7.25;;;1.73;;
23117;SDS011;11728;50.624;6.014;2023-01-01T11:50:24;6.03;;;1.63;;
23117;SDS011;11728;50.624;6.014;2023-01-01T12:07:32;8.27;;;1.50;;
23117;SDS011;11728;50.624;6.014;2023-01-01T12:13:03;7.05;;;1.40;;
23117;SDS011;11728;50.624;6.014;2023-01-01T12:18:38;6.53;;;1.25;;
23117;SDS011;11728;50.624;6.014;2023-01-01T12:24:10;5.22;;;1.17;;
23117;SDS011;11728;50.624;6.014;2023-01-01T12:29:53;4.20;;;1.35;;
23117;SDS011;11728;50.624;6.014;2023-01-01T12:35:27;6.28;;;1.23;;
23117;SDS011;11728;50.624;6.014;2023-01-01T13:03:16;3.80;;;1.08;;
23117;SDS011;11728;50.624;6.014;2023-01-01T13:08:40;6.17;;;1.07;;
23117;SDS011;11728;50.624;6.014;2023-01-01T13:14:03;3.15;;;1.00;;
23117;SDS011;11728;50.624;6.014;2023-01-01T13:19:32;6.45;;;1.27;;
23117;SDS011;11728;50.624;6.014;2023-01-01T13:25:28;7.55;;;1.60;;
23117;SDS011;11728;50.624;6.014;2023-01-01T13:41:32;6.22;;;1.13;;
23117;SDS011;11728;50.624;6.014;2023-01-01T14:04:32;5.65;;;0.95;;
23117;SDS011;11728;50.624;6.014;2023-01-01T14:21:14;4.22;;;0.90;;
23117;SDS011;11728;50.624;6.014;2023-01-01T14:26:38;4.85;;;0.93;;
23117;SDS011;11728;50.624;6.014;2023-01-01T14:32:10;3.25;;;1.08;;
23117;SDS011;11728;50.624;6.014;2023-01-01T14:37:33;3.97;;;1.10;;
23117;SDS011;11728;50.624;6.014;2023-01-01T14:42:59;5.18;;;1.05;;
23117;SDS011;11728;50.624;6.014;2023-01-01T14:48:23;7.40;;;2.00;;
23117;SDS011;11728;50.624;6.014;2023-01-01T14:53:45;4.00;;;1.50;;
23117;SDS011;11728;50.624;6.014;2023-01-01T14:59:12;5.68;;;1.00;;
23117;SDS011;11728;50.624;6.014;2023-01-01T15:04:42;6.65;;;1.80;;
23117;SDS011;11728;50.624;6.014;2023-01-01T15:10:03;5.20;;;1.20;;
23117;SDS011;11728;50.624;6.014;2023-01-01T15:15:38;3.22;;;1.08;;
23117;SDS011;11728;50.624;6.014;2023-01-01T15:21:05;6.65;;;1.05;;
23117;SDS011;11728;50.624;6.014;2023-01-01T15:26:34;8.10;;;1.10;;
23117;SDS011;11728;50.624;6.014;2023-01-01T15:32:01;2.15;;;0.85;;
23117;SDS011;11728;50.624;6.014;2023-01-01T15:49:48;6.60;;;1.42;;
23117;SDS011;11728;50.624;6.014;2023-01-01T15:55:14;5.68;;;1.40;;
23117;SDS011;11728;50.624;6.014;2023-01-01T16:00:37;7.07;;;1.50;;
23117;SDS011;11728;50.624;6.014;2023-01-01T16:06:00;5.68;;;2.53;;
23117;SDS011;11728;50.624;6.014;2023-01-01T16:11:22;11.23;;;6.57;;
23117;SDS011;11728;50.624;6.014;2023-01-01T16:16:45;11.75;;;7.35;;
23117;SDS011;11728;50.624;6.014;2023-01-01T16:22:14;10.68;;;7.15;;
23117;SDS011;11728;50.624;6.014;2023-01-01T16:27:36;17.25;;;11.50;;
23117;SDS011;11728;50.624;6.014;2023-01-01T16:32:57;7.60;;;3.20;;
23117;SDS011;11728;50.624;6.014;2023-01-01T16:38:18;8.23;;;3.03;;
23117;SDS011;11728;50.624;6.014;2023-01-01T16:43:39;2.80;;;1.92;;
23117;SDS011;11728;50.624;6.014;2023-01-01T16:49:02;8.63;;;4.72;;
23117;SDS011;11728;50.624;6.014;2023-01-01T16:54:23;9.75;;;5.50;;
23117;SDS011;11728;50.624;6.014;2023-01-01T16:59:44;6.60;;;3.38;;
23117;SDS011;11728;50.624;6.014;2023-01-01T17:05:05;7.13;;;2.22;;
23117;SDS011;11728;50.624;6.014;2023-01-01T17:10:26;9.73;;;2.88;;
23117;SDS011;11728;50.624;6.014;2023-01-01T17:15:53;6.63;;;2.88;;
23117;SDS011;11728;50.624;6.014;2023-01-01T17:21:16;12.90;;;3.88;;
23117;SDS011;11728;50.624;6.014;2023-01-01T17:26:38;13.77;;;4.55;;
23117;SDS011;11728;50.624;6.014;2023-01-01T17:31:58;13.23;;;6.70;;
23117;SDS011;11728;50.624;6.014;2023-01-01T17:37:19;18.50;;;7.40;;
23117;SDS011;11728;50.624;6.014;2023-01-01T17:42:40;10.13;;;4.30;;
23117;SDS011;11728;50.624;6.014;2023-01-01T17:54:37;14.07;;;5.13;;
23117;SDS011;11728;50.624;6.014;2023-01-01T18:06:35;12.05;;;6.40;;
23117;SDS011;11728;50.624;6.014;2023-01-01T18:11:57;13.65;;;6.95;;
23117;SDS011;11728;50.624;6.014;2023-01-01T18:17:18;15.80;;;6.97;;
23117;SDS011;11728;50.624;6.014;2023-01-01T18:22:39;17.00;;;4.78;;
23117;SDS011;11728;50.624;6.014;2023-01-01T18:28:00;15.15;;;7.65;;
23117;SDS011;11728;50.624;6.014;2023-01-01T18:33:21;16.55;;;10.70;;
23117;SDS011;11728;50.624;6.014;2023-01-01T18:38:52;12.98;;;3.70;;
23117;SDS011;11728;50.624;6.014;2023-01-01T18:49:43;10.63;;;3.35;;
23117;SDS011;11728;50.624;6.014;2023-01-01T19:00:28;15.82;;;7.18;;
23117;SDS011;11728;50.624;6.014;2023-01-01T19:05:50;8.18;;;3.17;;
23117;SDS011;11728;50.624;6.014;2023-01-01T19:11:11;12.77;;;3.28;;
23117;SDS011;11728;50.624;6.014;2023-01-01T19:16:40;10.52;;;3.42;;
23117;SDS011;11728;50.624;6.014;2023-01-01T19:22:11;14.55;;;3.63;;
23117;SDS011;11728;50.624;6.014;2023-01-01T19:27:34;12.95;;;3.50;;
23117;SDS011;11728;50.624;6.014;2023-01-01T19:32:55;11.88;;;3.28;;
23117;SDS011;11728;50.624;6.014;2023-01-01T19:38:16;13.18;;;3.17;;
23117;SDS011;11728;50.624;6.014;2023-01-01T19:43:37;8.52;;;3.13;;
23117;SDS011;11728;50.624;6.014;2023-01-01T19:48:58;8.98;;;3.30;;
23117;SDS011;11728;50.624;6.014;2023-01-01T19:54:19;7.22;;;3.22;;
23117;SDS011;11728;50.624;6.014;2023-01-01T19:59:39;9.80;;;3.33;;
23117;SDS011;11728;50.624;6.014;2023-01-01T20:05:00;16.33;;;3.10;;
23117;SDS011;11728;50.624;6.014;2023-01-01T20:10:21;11.20;;;3.50;;
23117;SDS011;11728;50.624;6.014;2023-01-01T20:15:43;12.57;;;3.20;;
23117;SDS011;11728;50.624;6.014;2023-01-01T20:21:04;10.02;;;2.83;;
23117;SDS011;11728;50.624;6.014;2023-01-01T20:26:43;10.35;;;2.85;;
23117;SDS011;11728;50.624;6.014;2023-01-01T20:32:04;10.85;;;2.95;;
23117;SDS011;11728;50.624;6.014;2023-01-01T20:37:31;10.05;;;3.00;;
23117;SDS011;11728;50.624;6.014;2023-01-01T20:42:58;7.03;;;2.72;;
23117;SDS011;11728;50.624;6.014;2023-01-01T20:48:19;6.72;;;2.70;;
23117;SDS011;11728;50.624;6.014;2023-01-01T20:53:41;9.63;;;2.63;;
23117;SDS011;11728;50.624;6.014;2023-01-01T20:59:02;12.18;;;2.72;;
23117;SDS011;11728;50.624;6.014;2023-01-01T21:04:23;8.48;;;2.47;;
23117;SDS011;11728;50.624;6.014;2023-01-01T21:09:45;13.63;;;2.83;;
23117;SDS011;11728;50.624;6.014;2023-01-01T21:15:09;10.93;;;2.47;;
23117;SDS011;11728;50.624;6.014;2023-01-01T21:20:35;11.65;;;3.22;;
23117;SDS011;11728;50.624;6.014;2023-01-01T21:25:58;8.18;;;2.65;;
23117;SDS011;11728;50.624;6.014;2023-01-01T21:31:18;6.93;;;2.30;;
23117;SDS011;11728;50.624;6.014;2023-01-01T21:36:41;11.02;;;2.40;;
23117;SDS011;11728;50.624;6.014;2023-01-01T21:42:08;10.70;;;2.60;;
23117;SDS011;11728;50.624;6.014;2023-01-01T21:47:41;8.13;;;2.42;;
23117;SDS011;11728;50.624;6.014;2023-01-01T21:53:07;12.70;;;2.80;;
23117;SDS011;11728;50.624;6.014;2023-01-01T21:58:32;8.98;;;2.42;;
23117;SDS011;11728;50.624;6.014;2023-01-01T22:09:40;14.73;;;2.75;;
23117;SDS011;11728;50.624;6.014;2023-01-01T22:15:18;8.10;;;2.38;;
23117;SDS011;11728;50.624;6.014;2023-01-01T22:20:47;11.18;;;2.85;;
23117;SDS011;11728;50.624;6.014;2023-01-01T22:26:22;14.82;;;2.95;;
23117;SDS011;11728;50.624;6.014;2023-01-01T22:31:47;9.02;;;2.67;;
23117;SDS011;11728;50.624;6.014;2023-01-01T22:37:09;11.80;;;2.63;;
23117;SDS011;11728;50.624;6.014;2023-01-01T22:42:38;9.13;;;2.55;;
23117;SDS011;11728;50.624;6.014;2023-01-01T22:48:02;7.72;;;2.20;;
23117;SDS011;11728;50.624;6.014;2023-01-01T22:53:25;6.40;;;2.50;;
23117;SDS011;11728;50.624;6.014;2023-01-01T22:58:46;9.38;;;2.70;;
23117;SDS011;11728;50.624;6.014;2023-01-01T23:04:06;11.88;;;2.40;;
23117;SDS011;11728;50.624;6.014;2023-01-01T23:09:27;7.90;;;2.08;;
23117;SDS011;11728;50.624;6.014;2023-01-01T23:14:48;13.00;;;2.97;;
23117;SDS011;11728;50.624;6.014;2023-01-01T23:20:29;9.85;;;2.40;;
23117;SDS011;11728;50.624;6.014;2023-01-01T23:25:50;7.60;;;2.53;;
23117;SDS011;11728;50.624;6.014;2023-01-01T23:31:12;5.63;;;2.33;;
23117;SDS011;11728;50.624;6.014;2023-01-01T23:36:35;11.35;;;2.58;;
23117;SDS011;11728;50.624;6.014;2023-01-01T23:41:57;11.43;;;2.67;;
23117;SDS011;11728;50.624;6.014;2023-01-01T23:47:18;9.35;;;2.30;;
23117;SDS011;11728;50.624;6.014;2023-01-01T23:52:39;7.68;;;2.20;;
23117;SDS011;11728;50.624;6.014;2023-01-01T23:58:00;17.92;;;2.40;;
